KDRT/DRT METAR and TAF weather

Enter ICAO airport designator
Station Type Date Time Source
KDRT METAR 2020/01/19 02:53 UTC NOAA

KDRT 190253Z AUTO 36008KT 10SM CLR 14/04 A3034 RMK AO2 SLP268 T01390044 51035 $


Station Type Date Time Source
KDRT Decoded METAR 2020/01/19 02:53 UTC NOAA

DEL RIO INTERNATIONAL AIRPORT, TX, United States (KDRT) 29-22N 100-55W 313M
Jan 18, 2020 - 09:53 PM EST / 2020.01.19 0253 UTC
Wind: from the N (360 degrees) at 9 MPH (8 KT):0
Visibility: 10 mile(s):0
Sky conditions: clear
Temperature: 57.0 F (13.9 C)
Dew Point: 39.9 F (4.4 C)
Relative Humidity: 52%
Pressure (altimeter): 30.34 in. Hg (1027 hPa)
Pressure tendency: 0.10 inches (3.5 hPa) higher than three hours ago
ob: KDRT 190253Z AUTO 36008KT 10SM CLR 14/04 A3034 RMK AO2 SLP268 T01390044 51035
cycle: 3

Station Type Date Time Source
KDRT TAF 2020/01/18 18:24 UTC NOAA

TAF KDRT 181723Z 1818/1918 31014G24KT P6SM SKC
FM190000 33005KT P6SM SKC

Example: see airport list